Time;durP1;ratioP1;P1;durP2;ratioP2;P2;SDS_P1;SDS_P2;PMS_P1;PMS_P2;Temp;Humidity;BMP_temperature;BMP_pressure;BME280_temperature;BME280_humidity;BME280_pressure;Samples;Min_cycle;Max_cycle;Signal;HPM_P1;HPM_P2
2024/04/19 00:01:53;;;;;;;10.77;6.70;;;;;;;;;;5383090;26;20004;-55
2024/04/19 00:04:19;;;;;;;9.70;6.32;;;;;;;;;;5383110;26;20011;-56
2024/04/19 00:06:44;;;;;;;7.90;6.57;;;;;;;;;;5383045;26;20000;-54
2024/04/19 00:09:09;;;;;;;11.32;6.47;;;;;;;;;;5383029;26;19992;-55
2024/04/19 00:11:35;;;;;;;8.95;6.80;;;;;;;;;;5382891;26;19996;-55
2024/04/19 00:14:00;;;;;;;7.78;6.25;;;;;;;;;;5382977;26;20008;-55
2024/04/19 00:16:26;;;;;;;8.55;6.25;;;;;;;;;;5382877;26;20426;-55
2024/04/19 00:18:51;;;;;;;10.73;6.65;;;;;;;;;;5382881;26;19996;-55
2024/04/19 00:21:16;;;;;;;8.40;6.28;;;;;;;;;;5382830;26;20423;-56
2024/04/19 00:23:42;;;;;;;9.02;6.30;;;;;;;;;;5382747;26;19992;-55
2024/04/19 00:26:08;;;;;;;8.40;6.25;;;;;;;;;;5382619;26;20061;-55
2024/04/19 00:28:39;;;;;;;8.15;5.70;;;;;;;;;;5352562;26;19996;-55
2024/04/19 00:31:04;;;;;;;7.22;6.10;;;;;;;;;;5384666;26;20482;-55
2024/04/19 00:33:31;;;;;;;8.75;6.78;;;;;;;;;;5386032;26;20008;-55
2024/04/19 00:35:56;;;;;;;9.60;6.80;;;;;;;;;;5354964;26;20003;-55
2024/04/19 00:38:22;;;;;;;9.40;6.30;;;;;;;;;;5386032;26;19993;-56
2024/04/19 00:40:47;;;;;;;9.27;6.47;;;;;;;;;;5386036;26;20001;-56
2024/04/19 00:43:12;;;;;;;9.68;6.68;;;;;;;;;;5386068;26;19992;-55
2024/04/19 00:45:38;;;;;;;8.63;6.47;;;;;;;;;;5385948;26;20008;-55
2024/04/19 00:48:09;;;;;;;9.82;6.72;;;;;;;;;;5385485;26;20009;-56
2024/04/19 00:50:56;;;;;;;7.03;5.78;;;;;;;;;;5385489;26;20049;-56
2024/04/19 00:53:26;;;;;;;7.15;5.43;;;;;;;;;;5385309;26;20007;-55
2024/04/19 00:56:00;;;;;;;6.90;6.20;;;;;;;;;;5385578;26;20018;-55
2024/04/19 00:58:26;;;;;;;6.30;5.70;;;;;;;;;;5385448;26;20066;-55
2024/04/19 01:00:52;;;;;;;7.03;5.95;;;;;;;;;;5354449;26;20454;-55
2024/04/19 01:03:23;;;;;;;7.25;5.47;;;;;;;;;;5385386;26;19996;-56
2024/04/19 01:05:48;;;;;;;7.82;5.25;;;;;;;;;;5385359;26;20031;-56
2024/04/19 01:08:26;;;;;;;5.60;5.03;;;;;;;;;;5385307;26;20010;-61
2024/04/19 01:11:00;;;;;;;5.65;4.88;;;;;;;;;;5391535;21;20000;-57
2024/04/19 01:13:26;;;;;;;5.53;4.40;;;;;;;;;;5353988;21;20365;-55
2024/04/19 01:15:51;;;;;;;6.13;5.07;;;;;;;;;;5315526;27;20004;-56
2024/04/19 01:18:27;;;;;;;9.27;5.30;;;;;;;;;;5337220;21;20068;-55
2024/04/19 01:20:52;;;;;;;8.55;5.20;;;;;;;;;;5399327;21;19997;-55
2024/04/19 01:23:18;;;;;;;6.93;5.40;;;;;;;;;;5385170;26;20087;-60
2024/04/19 01:25:44;;;;;;;10.68;5.80;;;;;;;;;;5354190;26;20467;-61
2024/04/19 01:28:10;;;;;;;8.35;5.75;;;;;;;;;;5384983;26;20010;-61
2024/04/19 01:30:39;;;;;;;5.90;5.32;;;;;;;;;;5384987;26;20000;-56
2024/04/19 01:33:04;;;;;;;7.78;5.45;;;;;;;;;;5384898;26;20028;-55
2024/04/19 01:35:30;;;;;;;7.03;5.60;;;;;;;;;;5384920;26;20004;-55
2024/04/19 01:37:56;;;;;;;7.53;4.82;;;;;;;;;;5384829;26;20496;-55
2024/04/19 01:40:22;;;;;;;5.80;4.80;;;;;;;;;;5385140;26;19996;-55
2024/04/19 01:42:47;;;;;;;5.40;4.78;;;;;;;;;;5383418;26;20077;-55
2024/04/19 01:45:12;;;;;;;7.45;4.35;;;;;;;;;;5384794;26;20006;-55
2024/04/19 01:47:39;;;;;;;5.32;4.63;;;;;;;;;;5353846;26;19992;-55
2024/04/19 01:50:05;;;;;;;7.15;5.30;;;;;;;;;;5384778;26;19996;-55
2024/04/19 01:52:30;;;;;;;7.25;4.40;;;;;;;;;;5384642;26;20342;-55
2024/04/19 01:54:56;;;;;;;5.65;5.05;;;;;;;;;;5384607;26;20004;-55
2024/04/19 01:57:21;;;;;;;5.00;4.35;;;;;;;;;;5353764;26;20011;-55
2024/04/19 01:59:47;;;;;;;4.70;4.20;;;;;;;;;;5384521;26;19992;-55
2024/04/19 02:02:12;;;;;;;7.05;4.80;;;;;;;;;;5384509;26;20000;-55
2024/04/19 02:04:37;;;;;;;7.03;5.03;;;;;;;;;;5353631;26;20016;-55
2024/04/19 02:07:03;;;;;;;6.40;5.18;;;;;;;;;;5384510;26;20003;-55
2024/04/19 02:09:37;;;;;;;7.00;5.63;;;;;;;;;;5384711;26;20043;-55
2024/04/19 02:12:02;;;;;;;5.30;4.80;;;;;;;;;;5384043;26;20007;-55
2024/04/19 02:14:30;;;;;;;10.65;5.75;;;;;;;;;;5384262;26;19996;-56
2024/04/19 02:16:56;;;;;;;7.30;5.45;;;;;;;;;;5384098;26;20330;-56
2024/04/19 02:19:22;;;;;;;6.60;5.65;;;;;;;;;;5384238;26;19992;-56
2024/04/19 02:21:48;;;;;;;7.47;5.38;;;;;;;;;;5384210;26;20036;-56
2024/04/19 02:24:13;;;;;;;7.32;4.95;;;;;;;;;;5353531;26;19997;-55
2024/04/19 02:26:40;;;;;;;6.22;4.97;;;;;;;;;;5384481;26;20427;-55
2024/04/19 02:31:49;;;;;;;5.78;4.80;;;;;;;;;;5353041;26;20010;-55
2024/04/19 02:34:15;;;;;;;7.90;4.70;;;;;;;;;;5384064;26;19992;-55
2024/04/19 02:36:40;;;;;;;6.90;5.28;;;;;;;;;;5383792;26;19996;-55
2024/04/19 02:39:06;;;;;;;5.55;4.82;;;;;;;;;;5384093;26;20011;-55
2024/04/19 02:41:31;;;;;;;7.30;5.22;;;;;;;;;;5384293;26;19996;-55
2024/04/19 02:43:56;;;;;;;7.80;5.47;;;;;;;;;;5383983;26;20319;-55
2024/04/19 02:46:22;;;;;;;7.35;5.32;;;;;;;;;;5383859;26;20008;-55
2024/04/19 02:48:49;;;;;;;8.13;5.25;;;;;;;;;;5383950;26;20002;-54
2024/04/19 02:51:15;;;;;;;6.95;5.45;;;;;;;;;;5383796;26;19996;-55
2024/04/19 02:53:42;;;;;;;6.90;5.18;;;;;;;;;;5383416;26;20006;-55
2024/04/19 02:56:07;;;;;;;8.10;5.78;;;;;;;;;;5383710;26;20008;-55
2024/04/19 02:58:33;;;;;;;8.77;6.20;;;;;;;;;;5383713;26;20496;-55
2024/04/19 03:00:58;;;;;;;7.53;6.13;;;;;;;;;;5352978;26;20007;-55
2024/04/19 03:03:23;;;;;;;7.30;6.07;;;;;;;;;;5383729;26;20369;-55
2024/04/19 03:05:49;;;;;;;10.25;7.50;;;;;;;;;;5383604;26;19996;-55
2024/04/19 03:08:14;;;;;;;9.93;7.47;;;;;;;;;;5383932;26;20008;-55
2024/04/19 03:10:39;;;;;;;12.88;8.65;;;;;;;;;;5383600;26;20002;-54
2024/04/19 03:13:07;;;;;;;11.27;7.97;;;;;;;;;;5383498;26;20352;-55
2024/04/19 03:15:33;;;;;;;14.32;7.93;;;;;;;;;;5352677;26;20011;-55
2024/04/19 03:17:58;;;;;;;12.80;9.48;;;;;;;;;;5383426;26;19997;-55
2024/04/19 03:20:24;;;;;;;13.38;10.10;;;;;;;;;;5383085;26;20007;-55
2024/04/19 03:22:49;;;;;;;19.30;12.52;;;;;;;;;;5383373;26;20430;-54
2024/04/19 03:25:15;;;;;;;18.85;12.35;;;;;;;;;;5383354;26;19996;-55
2024/04/19 03:27:40;;;;;;;19.88;13.48;;;;;;;;;;5383330;26;19996;-54
2024/04/19 03:30:06;;;;;;;18.55;12.88;;;;;;;;;;5383069;26;20434;-54
2024/04/19 03:32:31;;;;;;;18.13;13.63;;;;;;;;;;5383123;26;20004;-55
2024/04/19 03:34:57;;;;;;;22.60;14.85;;;;;;;;;;5382715;26;19992;-54
2024/04/19 03:37:22;;;;;;;22.50;13.85;;;;;;;;;;5383219;26;19992;-54
2024/04/19 03:39:47;;;;;;;25.30;16.30;;;;;;;;;;5383109;26;20069;-54
2024/04/19 03:42:14;;;;;;;19.92;13.05;;;;;;;;;;5352220;26;20438;-54
2024/04/19 03:47:24;;;;;;;21.42;15.02;;;;;;;;;;5382377;26;20454;-54
2024/04/19 03:49:50;;;;;;;19.52;12.88;;;;;;;;;;5350468;26;20103;-54
2024/04/19 03:52:15;;;;;;;16.45;11.55;;;;;;;;;;5380544;26;19996;-54
2024/04/19 03:54:43;;;;;;;24.08;16.08;;;;;;;;;;5382944;26;20458;-54
2024/04/19 03:57:09;;;;;;;23.40;14.90;;;;;;;;;;5382866;26;20011;-54
2024/04/19 03:59:34;;;;;;;19.92;14.23;;;;;;;;;;5382833;26;20338;-55
2024/04/19 04:02:14;;;;;;;24.63;15.82;;;;;;;;;;5380491;26;20000;-55
2024/04/19 04:04:52;;;;;;;26.48;17.00;;;;;;;;;;5351377;26;19996;-55
2024/04/19 04:07:18;;;;;;;22.27;14.63;;;;;;;;;;5350980;26;20458;-55
2024/04/19 04:09:43;;;;;;;20.63;14.25;;;;;;;;;;5382096;26;19992;-54
2024/04/19 04:12:09;;;;;;;23.38;15.15;;;;;;;;;;5381897;26;20069;-54
2024/04/19 04:14:36;;;;;;;20.08;11.80;;;;;;;;;;5381808;26;20042;-53
2024/04/19 04:17:01;;;;;;;24.60;14.73;;;;;;;;;;5350768;26;19996;-53
2024/04/19 04:19:27;;;;;;;18.88;11.55;;;;;;;;;;5381800;26;20007;-54
2024/04/19 04:21:52;;;;;;;21.42;15.25;;;;;;;;;;5381705;26;20366;-54
2024/04/19 04:24:18;;;;;;;23.33;15.40;;;;;;;;;;5383423;26;19996;-54
2024/04/19 04:26:43;;;;;;;23.52;15.05;;;;;;;;;;5385852;26;20072;-54
2024/04/19 04:29:08;;;;;;;23.10;15.60;;;;;;;;;;5385790;26;19996;-54
2024/04/19 04:31:34;;;;;;;23.63;14.32;;;;;;;;;;5385668;26;20091;-54
2024/04/19 04:33:59;;;;;;;24.08;13.75;;;;;;;;;;5385696;26;20332;-54
2024/04/19 04:36:25;;;;;;;25.02;14.02;;;;;;;;;;5385882;26;20010;-54
2024/04/19 04:38:50;;;;;;;23.05;14.18;;;;;;;;;;5385711;26;20000;-56
2024/04/19 04:41:16;;;;;;;21.65;13.77;;;;;;;;;;5385148;26;20007;-54
2024/04/19 04:43:42;;;;;;;25.95;16.02;;;;;;;;;;5385666;26;20008;-54
2024/04/19 04:46:07;;;;;;;28.08;16.38;;;;;;;;;;5385844;26;20024;-54
2024/04/19 04:48:33;;;;;;;34.42;19.02;;;;;;;;;;5385347;26;20000;-54
2024/04/19 04:50:59;;;;;;;39.72;19.67;;;;;;;;;;5385504;26;19996;-54
2024/04/19 04:53:25;;;;;;;36.00;20.77;;;;;;;;;;5385506;26;20331;-54
2024/04/19 04:55:53;;;;;;;36.80;20.90;;;;;;;;;;5385475;26;19996;-54
2024/04/19 04:58:18;;;;;;;34.97;19.85;;;;;;;;;;5385460;26;19996;-54
2024/04/19 05:00:43;;;;;;;36.85;21.85;;;;;;;;;;5354560;26;20034;-54
2024/04/19 05:03:09;;;;;;;42.20;24.08;;;;;;;;;;5384840;26;19992;-54
2024/04/19 05:05:34;;;;;;;43.22;24.52;;;;;;;;;;5385246;26;20003;-54
2024/04/19 05:08:01;;;;;;;45.55;26.38;;;;;;;;;;5385272;26;19996;-54
2024/04/19 05:10:26;;;;;;;40.92;24.20;;;;;;;;;;5385068;26;19996;-54
2024/04/19 05:12:51;;;;;;;36.88;22.23;;;;;;;;;;5385356;26;19996;-54
2024/04/19 05:15:17;;;;;;;41.10;25.65;;;;;;;;;;5385145;26;20019;-54
2024/04/19 05:17:43;;;;;;;36.83;23.30;;;;;;;;;;5353800;26;19992;-54
2024/04/19 05:20:09;;;;;;;37.13;24.25;;;;;;;;;;5384603;26;20372;-54
2024/04/19 05:22:37;;;;;;;33.28;22.13;;;;;;;;;;5354212;26;19996;-54
2024/04/19 05:25:03;;;;;;;19.95;13.02;;;;;;;;;;5385066;26;20008;-54
2024/04/19 05:27:29;;;;;;;24.05;17.23;;;;;;;;;;5384130;26;19996;-54
2024/04/19 05:29:54;;;;;;;25.55;17.83;;;;;;;;;;5382219;26;20007;-54
2024/04/19 05:32:19;;;;;;;25.65;18.20;;;;;;;;;;5380897;26;20074;-54
2024/04/19 05:34:45;;;;;;;23.33;16.40;;;;;;;;;;5381007;26;20011;-55
2024/04/19 05:37:10;;;;;;;20.70;15.27;;;;;;;;;;5381215;26;20410;-54
2024/04/19 05:39:36;;;;;;;19.42;14.63;;;;;;;;;;5380673;26;20404;-54
2024/04/19 05:42:01;;;;;;;23.85;15.73;;;;;;;;;;5380914;26;20436;-54
2024/04/19 05:44:31;;;;;;;27.20;15.25;;;;;;;;;;5380906;26;20000;-54
2024/04/19 05:47:00;;;;;;;16.98;12.15;;;;;;;;;;5380817;26;19992;-54
2024/04/19 05:49:25;;;;;;;14.88;11.63;;;;;;;;;;5350118;26;20014;-54
2024/04/19 05:51:51;;;;;;;12.98;9.23;;;;;;;;;;5380954;26;20423;-54
2024/04/19 05:54:16;;;;;;;13.93;10.60;;;;;;;;;;5350295;26;20000;-54
2024/04/19 05:56:41;;;;;;;11.38;9.70;;;;;;;;;;5381219;26;20004;-54
2024/04/19 05:59:06;;;;;;;12.77;10.15;;;;;;;;;;5384609;26;20423;-54
2024/04/19 06:01:32;;;;;;;11.52;8.57;;;;;;;;;;5384483;26;20370;-54
2024/04/19 06:03:58;;;;;;;13.88;10.48;;;;;;;;;;5384443;26;20004;-54
2024/04/19 06:06:23;;;;;;;11.35;8.90;;;;;;;;;;5384568;26;20318;-54
2024/04/19 06:08:49;;;;;;;10.43;7.88;;;;;;;;;;5353584;26;19996;-54
2024/04/19 06:11:14;;;;;;;12.05;8.95;;;;;;;;;;5384373;26;20000;-54
2024/04/19 06:13:40;;;;;;;9.18;7.57;;;;;;;;;;5384429;26;20000;-54
2024/04/19 06:16:05;;;;;;;11.63;8.27;;;;;;;;;;5384327;26;20441;-54
2024/04/19 06:18:30;;;;;;;10.77;8.27;;;;;;;;;;5384365;26;20327;-54
2024/04/19 06:20:56;;;;;;;9.35;7.20;;;;;;;;;;5384153;26;20012;-54
2024/04/19 06:23:21;;;;;;;10.65;7.03;;;;;;;;;;5384346;26;20003;-54
2024/04/19 06:25:47;;;;;;;10.77;8.38;;;;;;;;;;5384171;26;20002;-54
2024/04/19 06:28:12;;;;;;;8.65;7.07;;;;;;;;;;5383354;26;19996;-60
2024/04/19 06:30:37;;;;;;;11.30;7.60;;;;;;;;;;5353221;26;19992;-60
2024/04/19 06:33:03;;;;;;;9.15;7.22;;;;;;;;;;5384072;26;20064;-60
2024/04/19 06:35:28;;;;;;;8.15;6.68;;;;;;;;;;5384162;26;20485;-60
2024/04/19 06:37:54;;;;;;;10.40;7.10;;;;;;;;;;5384035;26;20024;-60
2024/04/19 06:40:19;;;;;;;8.70;7.13;;;;;;;;;;5384289;26;20035;-60
2024/04/19 06:42:46;;;;;;;8.25;6.40;;;;;;;;;;5384032;26;19992;-60
2024/04/19 06:45:11;;;;;;;7.60;6.70;;;;;;;;;;5384000;26;20438;-60
2024/04/19 06:47:36;;;;;;;9.43;7.20;;;;;;;;;;5383892;26;19996;-60
2024/04/19 06:50:02;;;;;;;7.40;6.63;;;;;;;;;;5383930;26;20000;-60
2024/04/19 06:52:27;;;;;;;9.68;6.55;;;;;;;;;;5383840;26;20360;-60
2024/04/19 06:54:52;;;;;;;9.23;7.38;;;;;;;;;;5383866;26;20000;-60
2024/04/19 06:57:18;;;;;;;11.18;6.68;;;;;;;;;;5383908;26;20011;-60
2024/04/19 06:59:44;;;;;;;9.50;7.28;;;;;;;;;;5383780;26;19996;-60
2024/04/19 07:02:09;;;;;;;10.27;6.85;;;;;;;;;;5383669;26;20007;-61
2024/04/19 07:04:35;;;;;;;6.70;6.05;;;;;;;;;;5383989;26;19996;-60
2024/04/19 07:07:00;;;;;;;8.13;6.18;;;;;;;;;;5383687;26;19992;-60
2024/04/19 07:09:25;;;;;;;9.40;6.70;;;;;;;;;;5383652;26;20061;-60
2024/04/19 07:11:51;;;;;;;9.00;6.20;;;;;;;;;;5383529;26;20000;-60
2024/04/19 07:14:16;;;;;;;7.43;5.00;;;;;;;;;;5383594;26;20003;-60
2024/04/19 07:16:41;;;;;;;11.02;7.13;;;;;;;;;;5383758;26;20303;-60
2024/04/19 07:19:07;;;;;;;7.95;6.25;;;;;;;;;;5383485;26;20000;-60
2024/04/19 07:21:32;;;;;;;8.88;5.80;;;;;;;;;;5383265;26;20008;-60
2024/04/19 07:23:57;;;;;;;8.32;6.00;;;;;;;;;;5383444;26;19992;-60
2024/04/19 07:26:23;;;;;;;8.13;5.80;;;;;;;;;;5383378;26;20430;-60
2024/04/19 07:28:48;;;;;;;6.72;4.63;;;;;;;;;;5383434;26;20427;-60
2024/04/19 07:31:14;;;;;;;4.88;3.67;;;;;;;;;;5383273;26;20003;-60
2024/04/19 07:33:40;;;;;;;7.63;5.00;;;;;;;;;;5383262;26;19996;-61
2024/04/19 07:36:06;;;;;;;7.85;5.68;;;;;;;;;;5383191;26;20008;-60
2024/04/19 07:38:31;;;;;;;8.77;6.22;;;;;;;;;;5383264;26;20003;-60
2024/04/19 07:41:03;;;;;;;8.13;5.72;;;;;;;;;;5381640;26;20000;-60
2024/04/19 07:43:29;;;;;;;8.55;6.18;;;;;;;;;;5383113;26;20043;-60
2024/04/19 07:45:54;;;;;;;8.18;5.78;;;;;;;;;;5382811;26;19996;-60
2024/04/19 07:48:20;;;;;;;7.55;5.38;;;;;;;;;;5383061;26;20004;-60
2024/04/19 07:50:45;;;;;;;8.15;5.32;;;;;;;;;;5383010;26;20311;-60
2024/04/19 07:53:11;;;;;;;5.82;4.38;;;;;;;;;;5382930;26;19996;-60
2024/04/19 07:55:38;;;;;;;4.75;4.35;;;;;;;;;;5383746;26;20364;-60
2024/04/19 07:58:03;;;;;;;7.07;4.32;;;;;;;;;;5382827;26;20454;-60
2024/04/19 08:00:29;;;;;;;4.75;3.30;;;;;;;;;;5382843;26;20003;-60
2024/04/19 08:02:54;;;;;;;4.15;3.75;;;;;;;;;;5382816;26;20336;-60
2024/04/19 08:05:20;;;;;;;6.90;3.88;;;;;;;;;;5382798;26;20000;-61
2024/04/19 08:07:45;;;;;;;3.45;3.15;;;;;;;;;;5382713;26;20008;-60
2024/04/19 08:10:15;;;;;;;3.72;2.63;;;;;;;;;;5382716;26;20016;-60
2024/04/19 08:12:41;;;;;;;3.65;3.33;;;;;;;;;;5382649;26;20028;-60
2024/04/19 08:15:06;;;;;;;5.82;3.20;;;;;;;;;;5382621;26;19999;-60
2024/04/19 08:17:32;;;;;;;3.10;2.90;;;;;;;;;;5382634;26;19992;-60
2024/04/19 08:19:57;;;;;;;5.32;3.28;;;;;;;;;;5351469;26;20051;-60
2024/04/19 08:22:22;;;;;;;3.85;3.42;;;;;;;;;;5382548;26;20318;-61
2024/04/19 08:24:48;;;;;;;3.53;2.58;;;;;;;;;;5382448;26;20026;-60
2024/04/19 08:27:13;;;;;;;2.28;2.17;;;;;;;;;;5382313;26;20043;-60
2024/04/19 08:29:38;;;;;;;3.60;2.78;;;;;;;;;;5382320;26;20066;-60
2024/04/19 08:32:05;;;;;;;3.80;2.45;;;;;;;;;;5351363;26;20003;-60
2024/04/19 08:34:31;;;;;;;2.65;2.45;;;;;;;;;;5382374;26;20389;-61
2024/04/19 08:36:57;;;;;;;2.47;2.30;;;;;;;;;;5382209;26;20065;-60
2024/04/19 08:39:22;;;;;;;2.40;1.92;;;;;;;;;;5382147;26;20070;-60
2024/04/19 08:41:50;;;;;;;4.13;2.47;;;;;;;;;;5382056;26;20008;-60
2024/04/19 08:44:16;;;;;;;2.13;1.95;;;;;;;;;;5382104;26;20000;-60
2024/04/19 08:46:42;;;;;;;2.65;2.10;;;;;;;;;;5382106;26;20007;-60
2024/04/19 08:49:08;;;;;;;3.00;2.45;;;;;;;;;;5381889;26;20423;-60
2024/04/19 08:51:37;;;;;;;2.78;2.58;;;;;;;;;;5383352;26;20000;-60
2024/04/19 08:54:03;;;;;;;3.38;2.22;;;;;;;;;;5354677;26;20004;-60
2024/04/19 08:56:30;;;;;;;2.60;2.40;;;;;;;;;;5385545;26;20007;-61
2024/04/19 08:58:56;;;;;;;2.90;2.42;;;;;;;;;;5385481;26;20087;-61
2024/04/19 09:01:22;;;;;;;3.00;2.70;;;;;;;;;;5385476;26;20326;-60
2024/04/19 09:03:48;;;;;;;2.20;2.05;;;;;;;;;;5385311;26;20439;-60
2024/04/19 09:06:14;;;;;;;2.88;2.35;;;;;;;;;;5385312;26;20073;-60
2024/04/19 09:08:40;;;;;;;2.70;2.15;;;;;;;;;;5385329;26;20427;-60
2024/04/19 09:11:12;;;;;;;5.50;2.90;;;;;;;;;;5385167;26;20094;-60
2024/04/19 09:13:37;;;;;;;1.20;1.08;;;;;;;;;;5385253;26;20443;-60
2024/04/19 09:16:03;;;;;;;3.30;2.53;;;;;;;;;;5385327;26;20000;-60
2024/04/19 09:18:28;;;;;;;2.75;2.50;;;;;;;;;;5354335;26;19997;-60
2024/04/19 09:20:56;;;;;;;3.28;2.63;;;;;;;;;;5354391;26;19996;-60
2024/04/19 09:23:21;;;;;;;2.80;2.17;;;;;;;;;;5354950;26;20356;-60
2024/04/19 09:25:54;;;;;;;2.47;2.00;;;;;;;;;;5354488;26;20415;-60
2024/04/19 09:28:20;;;;;;;2.40;2.20;;;;;;;;;;5385308;26;20007;-60
2024/04/19 09:30:45;;;;;;;1.80;1.55;;;;;;;;;;5385355;26;20000;-60
2024/04/19 09:33:18;;;;;;;2.38;1.92;;;;;;;;;;5384992;26;20393;-60
2024/04/19 09:35:43;;;;;;;1.73;1.60;;;;;;;;;;5384999;26;20000;-60
2024/04/19 09:38:09;;;;;;;1.90;1.80;;;;;;;;;;5384856;26;20007;-60
2024/04/19 09:40:35;;;;;;;1.92;1.70;;;;;;;;;;5384847;26;19996;-60
2024/04/19 09:43:03;;;;;;;1.52;1.30;;;;;;;;;;5353573;26;20008;-60
2024/04/19 09:45:29;;;;;;;1.77;1.67;;;;;;;;;;5385083;26;20389;-60
2024/04/19 09:47:57;;;;;;;1.33;1.23;;;;;;;;;;5385125;26;20062;-60
2024/04/19 09:50:30;;;;;;;2.50;1.85;;;;;;;;;;5384783;26;19997;-60
2024/04/19 09:52:58;;;;;;;1.08;1.00;;;;;;;;;;5354061;26;20322;-60
2024/04/19 09:55:28;;;;;;;1.90;1.60;;;;;;;;;;5385012;26;20000;-60
2024/04/19 09:57:54;;;;;;;1.60;1.50;;;;;;;;;;5354016;26;20004;-60
2024/04/19 10:00:22;;;;;;;1.00;1.00;;;;;;;;;;5384995;26;20001;-60
2024/04/19 10:02:48;;;;;;;1.48;1.38;;;;;;;;;;5383769;26;20008;-60
2024/04/19 10:05:13;;;;;;;2.67;1.60;;;;;;;;;;5353907;26;20307;-60
2024/04/19 10:07:40;;;;;;;3.55;1.23;;;;;;;;;;5384501;26;20009;-60
2024/04/19 10:10:06;;;;;;;1.98;1.50;;;;;;;;;;5384469;26;20007;-60
2024/04/19 10:12:32;;;;;;;1.75;1.33;;;;;;;;;;5384393;26;20000;-60
2024/04/19 10:14:57;;;;;;;1.30;1.15;;;;;;;;;;5384403;26;20011;-60
2024/04/19 10:17:23;;;;;;;1.40;1.30;;;;;;;;;;5384416;26;20419;-54
2024/04/19 10:19:49;;;;;;;2.47;1.40;;;;;;;;;;5383908;26;20077;-55
2024/04/19 10:22:20;;;;;;;2.85;1.33;;;;;;;;;;5353450;26;20026;-60
2024/04/19 10:24:51;;;;;;;1.35;1.25;;;;;;;;;;5363676;21;20017;-60
2024/04/19 10:27:16;;;;;;;1.85;1.50;;;;;;;;;;5395521;21;20011;-60
2024/04/19 10:29:48;;;;;;;1.48;1.38;;;;;;;;;;5434840;21;20008;-60
2024/04/19 10:32:18;;;;;;;1.90;1.50;;;;;;;;;;5419526;21;20008;-54
2024/04/19 10:34:44;;;;;;;1.42;1.33;;;;;;;;;;5408947;21;20005;-55
2024/04/19 10:37:09;;;;;;;1.55;1.45;;;;;;;;;;5382258;26;20484;-54
2024/04/19 10:39:35;;;;;;;1.63;1.35;;;;;;;;;;5384347;26;20023;-54
2024/04/19 10:42:00;;;;;;;1.90;1.30;;;;;;;;;;5384676;26;19996;-54
2024/04/19 10:44:28;;;;;;;1.95;1.45;;;;;;;;;;5384134;26;19992;-54
2024/04/19 10:46:53;;;;;;;2.78;1.70;;;;;;;;;;5384588;26;20063;-60
2024/04/19 10:49:21;;;;;;;2.10;1.48;;;;;;;;;;5384308;26;20043;-60
2024/04/19 10:51:51;;;;;;;3.75;2.30;;;;;;;;;;5384226;26;20008;-60
2024/04/19 10:54:17;;;;;;;2.50;1.58;;;;;;;;;;5384172;26;20073;-60
2024/04/19 10:56:42;;;;;;;4.47;1.48;;;;;;;;;;5384163;26;20007;-60
2024/04/19 10:59:07;;;;;;;2.15;1.50;;;;;;;;;;5384147;26;20011;-60
2024/04/19 11:01:33;;;;;;;2.80;2.13;;;;;;;;;;5383819;26;19996;-60
2024/04/19 11:03:59;;;;;;;2.13;1.98;;;;;;;;;;5384062;26;20007;-60
2024/04/19 11:06:25;;;;;;;4.05;2.17;;;;;;;;;;5383959;26;20004;-60
2024/04/19 11:08:50;;;;;;;1.80;1.70;;;;;;;;;;5383939;26;20000;-60
2024/04/19 11:11:16;;;;;;;1.70;1.60;;;;;;;;;;5383888;26;20411;-60
2024/04/19 11:13:43;;;;;;;1.70;1.23;;;;;;;;;;5383508;26;20011;-60
2024/04/19 11:16:08;;;;;;;1.73;1.63;;;;;;;;;;5383894;26;20000;-60
2024/04/19 11:18:35;;;;;;;2.05;1.63;;;;;;;;;;5383844;26;20425;-60
2024/04/19 11:21:00;;;;;;;3.13;1.80;;;;;;;;;;5383794;26;20000;-60
2024/04/19 11:23:26;;;;;;;1.17;1.17;;;;;;;;;;5383708;26;20004;-60
2024/04/19 11:25:54;;;;;;;1.58;1.48;;;;;;;;;;5383660;26;20430;-60
2024/04/19 11:28:19;;;;;;;1.17;1.08;;;;;;;;;;5383722;26;19997;-60
2024/04/19 11:30:45;;;;;;;1.75;1.25;;;;;;;;;;5383622;26;20369;-60
2024/04/19 11:33:11;;;;;;;1.50;1.40;;;;;;;;;;5383522;26;20007;-60
2024/04/19 11:35:40;;;;;;;1.70;1.60;;;;;;;;;;5382851;26;19992;-60
2024/04/19 11:38:05;;;;;;;1.55;1.48;;;;;;;;;;5383686;26;20008;-60
2024/04/19 11:40:31;;;;;;;1.55;1.23;;;;;;;;;;5383187;26;20362;-60
2024/04/19 11:42:57;;;;;;;0.88;0.88;;;;;;;;;;5383124;26;20076;-60
2024/04/19 11:45:22;;;;;;;1.48;1.38;;;;;;;;;;5383148;26;20006;-60
2024/04/19 11:47:49;;;;;;;1.25;1.15;;;;;;;;;;5383146;26;19992;-60
2024/04/19 11:50:14;;;;;;;0.77;0.77;;;;;;;;;;5383074;26;20338;-60
2024/04/19 11:52:39;;;;;;;1.30;1.23;;;;;;;;;;5382964;26;20003;-60
2024/04/19 11:55:05;;;;;;;1.90;1.70;;;;;;;;;;5382974;26;19992;-60
2024/04/19 11:57:30;;;;;;;2.00;1.65;;;;;;;;;;5382945;26;20381;-60
2024/04/19 11:59:56;;;;;;;2.40;1.92;;;;;;;;;;5382900;26;20011;-60
2024/04/19 12:02:21;;;;;;;2.05;1.60;;;;;;;;;;5382647;26;20003;-60
2024/04/19 12:05:02;;;;;;;2.65;2.15;;;;;;;;;;5382722;26;20000;-60
2024/04/19 12:07:29;;;;;;;1.75;1.65;;;;;;;;;;5382795;26;20000;-60
2024/04/19 12:09:55;;;;;;;2.13;1.58;;;;;;;;;;5382606;26;20000;-60
2024/04/19 12:12:21;;;;;;;2.28;2.08;;;;;;;;;;5382598;26;20007;-60
2024/04/19 12:14:48;;;;;;;1.55;1.45;;;;;;;;;;5382868;26;20003;-60
2024/04/19 12:17:14;;;;;;;0.57;0.50;;;;;;;;;;5382613;26;20007;-60
2024/04/19 12:19:40;;;;;;;0.90;0.90;;;;;;;;;;5351585;26;20008;-60
2024/04/19 12:22:05;;;;;;;0.52;0.52;;;;;;;;;;5382570;26;20077;-60
2024/04/19 12:24:34;;;;;;;0.50;0.50;;;;;;;;;;5382485;26;20077;-60
2024/04/19 12:27:02;;;;;;;0.85;0.85;;;;;;;;;;5384505;26;20070;-60
2024/04/19 12:29:27;;;;;;;1.55;1.45;;;;;;;;;;5385903;26;20000;-60
2024/04/19 12:31:53;;;;;;;0.93;0.93;;;;;;;;;;5385790;26;20335;-60
2024/04/19 12:34:18;;;;;;;0.93;0.75;;;;;;;;;;5385542;26;20000;-60
2024/04/19 12:36:46;;;;;;;1.10;0.98;;;;;;;;;;5385533;26;20000;-60
2024/04/19 12:39:12;;;;;;;0.70;0.70;;;;;;;;;;5385810;26;19996;-60
2024/04/19 12:41:37;;;;;;;1.10;1.10;;;;;;;;;;5385558;26;20002;-60
2024/04/19 12:44:03;;;;;;;2.03;1.50;;;;;;;;;;5385603;26;20000;-60
2024/04/19 12:46:28;;;;;;;1.13;1.02;;;;;;;;;;5385763;26;20008;-60
2024/04/19 12:49:03;;;;;;;1.75;1.50;;;;;;;;;;5385702;26;20011;-60
2024/04/19 12:51:30;;;;;;;1.10;0.98;;;;;;;;;;5385308;26;20000;-60
2024/04/19 12:53:55;;;;;;;1.13;1.13;;;;;;;;;;5385534;26;20040;-60
2024/04/19 12:56:20;;;;;;;3.00;1.40;;;;;;;;;;5385566;26;20419;-60
2024/04/19 12:58:46;;;;;;;0.98;0.98;;;;;;;;;;5385081;26;19989;-60
2024/04/19 13:01:11;;;;;;;1.23;1.13;;;;;;;;;;5354674;26;20000;-60
2024/04/19 13:03:37;;;;;;;1.98;1.88;;;;;;;;;;5385513;26;20007;-60
2024/04/19 13:06:02;;;;;;;1.83;1.58;;;;;;;;;;5385365;26;20001;-60
2024/04/19 13:08:28;;;;;;;2.03;1.80;;;;;;;;;;5385372;26;20047;-60
2024/04/19 13:10:53;;;;;;;1.30;1.23;;;;;;;;;;5385098;26;19992;-60
2024/04/19 13:13:19;;;;;;;1.70;1.58;;;;;;;;;;5385258;26;20000;-60
2024/04/19 13:15:44;;;;;;;1.73;1.45;;;;;;;;;;5385195;26;20338;-60
2024/04/19 13:18:09;;;;;;;2.97;1.45;;;;;;;;;;5385328;26;20008;-61
2024/04/19 13:20:36;;;;;;;2.00;1.75;;;;;;;;;;5385110;26;20043;-60
2024/04/19 13:23:01;;;;;;;1.50;1.40;;;;;;;;;;5385179;26;19996;-60
2024/04/19 13:25:27;;;;;;;1.70;1.60;;;;;;;;;;5385112;26;20007;-60
2024/04/19 13:27:52;;;;;;;2.17;1.98;;;;;;;;;;5384582;26;20074;-60
2024/04/19 13:30:17;;;;;;;2.63;2.42;;;;;;;;;;5385027;26;20007;-60
2024/04/19 13:32:43;;;;;;;1.90;1.80;;;;;;;;;;5384895;26;20065;-60
2024/04/19 13:35:08;;;;;;;3.47;1.67;;;;;;;;;;5353534;26;19996;-60
2024/04/19 13:37:34;;;;;;;2.92;2.08;;;;;;;;;;5385227;26;20004;-60
2024/04/19 13:39:59;;;;;;;3.03;1.70;;;;;;;;;;5385256;26;20024;-60
2024/04/19 13:42:25;;;;;;;2.25;1.85;;;;;;;;;;5385495;26;20311;-60
2024/04/19 13:44:50;;;;;;;1.80;1.70;;;;;;;;;;5354388;26;20050;-61
2024/04/19 13:47:16;;;;;;;2.85;2.03;;;;;;;;;;5385102;26;20004;-60
2024/04/19 13:49:42;;;;;;;1.95;1.85;;;;;;;;;;5354481;26;20020;-60
2024/04/19 13:52:08;;;;;;;2.47;1.48;;;;;;;;;;5384988;26;20011;-60
2024/04/19 13:54:33;;;;;;;2.20;2.00;;;;;;;;;;5384992;26;20426;-60
2024/04/19 13:56:58;;;;;;;2.20;1.77;;;;;;;;;;5384959;26;19996;-61
2024/04/19 13:59:24;;;;;;;2.45;2.13;;;;;;;;;;5384746;26;20008;-60
2024/04/19 14:01:50;;;;;;;3.22;2.20;;;;;;;;;;5384466;26;20024;-60
2024/04/19 14:04:15;;;;;;;1.92;1.75;;;;;;;;;;5384922;26;20000;-62
2024/04/19 14:06:41;;;;;;;3.75;2.03;;;;;;;;;;5353834;26;19996;-61
2024/04/19 14:09:07;;;;;;;2.42;1.90;;;;;;;;;;5354004;26;20069;-59
2024/04/19 14:11:36;;;;;;;5.32;1.88;;;;;;;;;;5384699;26;19996;-59
2024/04/19 14:14:01;;;;;;;1.75;1.65;;;;;;;;;;5384767;26;20012;-59
2024/04/19 14:16:27;;;;;;;1.65;1.55;;;;;;;;;;5384777;26;20480;-59
2024/04/19 14:18:53;;;;;;;0.90;0.90;;;;;;;;;;5353903;26;20000;-59
2024/04/19 14:21:18;;;;;;;2.22;2.05;;;;;;;;;;5384066;26;20008;-59
2024/04/19 14:23:47;;;;;;;1.63;1.52;;;;;;;;;;5384286;26;19996;-59
2024/04/19 14:26:22;;;;;;;2.20;1.90;;;;;;;;;;5384243;26;19996;-59
2024/04/19 14:28:47;;;;;;;2.45;2.05;;;;;;;;;;5384572;26;20032;-59
2024/04/19 14:31:13;;;;;;;2.08;1.88;;;;;;;;;;5383963;26;20073;-59
2024/04/19 14:33:39;;;;;;;3.08;2.00;;;;;;;;;;5383992;26;20066;-53
2024/04/19 14:36:05;;;;;;;1.92;1.67;;;;;;;;;;5383770;26;20438;-53
2024/04/19 14:38:30;;;;;;;3.15;2.58;;;;;;;;;;5383613;26;20066;-53